• Join FlightAware (Why Join?)
  • Login
  • US Flag 
06:38AM EST


 

Airport Tracker/Info


-or-


 

Live Flight TrackerFlight Track Log ✈ N755CC ✈ 29-Apr-2013 ✈ KSWF - KBLM

Flight Track Log - Related Links

Times and Time Zones

All times are in EDT time to prevent confusion due to time zone crossing. See the N755CC flight status page for this flight to view local times or setup timezone preferences in your user account.

Time Position Orientation Groundspeed Altitude Reporting Facility
EDT Latitude Longitude Course Direction KTS MPH feet Rate Location/Type
09:34AM 41.4500 -74.0833 217° Southwest 91 105 2,700  Level New York TRACON
09:35AM 41.4500 -74.1167 270° West 108 124 3,400 660 Climbing New York TRACON
09:36AM 41.4500 -74.1667 270° West 113 130 4,100 300 Climbing New York TRACON
09:37AM 41.4500 -74.2000 270° West 133 153 4,000 -60 Descending New York TRACON
09:38AM 41.4333 -74.2500 246° West 130 150 4,000  Level New York TRACON
09:39AM 41.4167 -74.3000 246° West 132 152 4,000  Level New York TRACON
09:40AM 41.4167 -74.3500 270° West 133 153 4,000  Level New York TRACON
09:41AM 41.4000 -74.4000 246° West 136 157 4,000  Level New York TRACON
09:42AM 41.3833 -74.4333 236° Southwest 135 155 4,000  Level New York TRACON
09:43AM 41.3833 -74.4833 270° West 131 151 4,000  Level New York TRACON
09:44AM 41.3667 -74.5333 246° West 134 154 4,000  Level New York TRACON
09:45AM 41.3500 -74.5833 246° West 134 154 4,000  Level New York TRACON
09:46AM 41.3333 -74.6167 236° Southwest 133 153 4,000  Level New York TRACON
09:47AM 41.3333 -74.6667 270° West 128 147 4,000  Level New York TRACON
09:48AM 41.3167 -74.7167 246° West 128 147 4,000  Level New York TRACON
09:49AM 41.3000 -74.7500 236° Southwest 115 132 4,000  Level New York TRACON
09:50AM 41.2667 -74.7833 217° Southwest 118 136 4,000  Level New York TRACON
09:51AM 41.2500 -74.8000 217° Southwest 115 132 4,000  Level New York TRACON
09:53AM 41.2062 -74.8459 222° Southwest  Level FlightAware Approximate
10:00AM 41.0292 -75.0595 224° Southwest  Level FlightAware Approximate
10:01AM 41.0045 -75.0906 224° Southwest  Level FlightAware Approximate
10:02AM 40.9796 -75.1218 223° Southwest  Level FlightAware Approximate
10:03AM 40.9548 -75.1529 223° Southwest  Level FlightAware Approximate
10:04AM 40.9300 -75.1840 223° Southwest  Level FlightAware Approximate
10:05AM 40.9052 -75.2151 223° Southwest  Level FlightAware Approximate
10:06AM 40.8804 -75.2461 223° Southwest  Level FlightAware Approximate
10:07AM 40.8555 -75.2772 223° Southwest  Level FlightAware Approximate
10:08AM 40.8307 -75.3082 223° Southwest  Level FlightAware Approximate
10:09AM 40.8058 -75.3391 223° Southwest  Level FlightAware Approximate
10:10AM 40.7810 -75.3701 223° Southwest  Level FlightAware Approximate
10:11AM 40.7561 -75.4010 223° Southwest  Level FlightAware Approximate
10:11AM 40.7500 -75.2167 146° Southeast 118 136 5,000  Level Philadelphia TRACON
10:12AM 40.7312 -75.4319 223° Southwest  Level FlightAware Approximate
10:12AM 40.7167 -75.2167 180° South 119 137 5,000  Level Philadelphia TRACON
10:13AM 40.7050 -75.4394 146° Southeast  Level FlightAware Approximate
10:13AM 40.6833 -75.2000 159° South 117 135 5,000  Level Philadelphia TRACON
10:14AM 40.6768 -75.4140 146° Southeast  Level FlightAware Approximate
10:14AM 40.6500 -75.2000 180° South 113 130 5,000  Level Philadelphia TRACON
10:15AM 40.6485 -75.3886 146° Southeast  Level FlightAware Approximate
10:15AM 40.6167 -75.1833 159° South 114 131 5,000  Level Philadelphia TRACON
10:16AM 40.6203 -75.3632 146° Southeast  Level FlightAware Approximate
10:16AM 40.5833 -75.1833 180° South 115 132 5,000  Level Philadelphia TRACON
10:17AM 40.5500 -75.1667 159° South 112 129 5,000  Level Philadelphia TRACON
10:18AM 40.5333 -75.1667 180° South 110 127 5,000  Level Philadelphia TRACON
10:19AM 40.5000 -75.1667 180° South 108 124 5,000  Level Philadelphia TRACON
10:20AM 40.4667 -75.1500 159° South 111 128 5,000  Level Philadelphia TRACON
10:21AM 40.4333 -75.1500 180° South 113 130 5,000  Level Philadelphia TRACON
10:22AM 40.4000 -75.1333 159° South 112 129 5,000 -120 Level Philadelphia TRACON
10:23AM 40.3833 -75.1167 143° Southeast 126 145 4,800 -300 Descending Philadelphia TRACON
10:24AM 40.3667 -75.0833 123° Southeast 126 145 4,400 -420 Descending Philadelphia TRACON
10:25AM 40.3500 -75.0333 114° Southeast 124 143 4,000 -240 Descending Philadelphia TRACON
10:26AM 40.3333 -75.0000 123° Southeast 117 135 4,000  Level Philadelphia TRACON
10:28AM 40.2956 -74.9547 137° Southeast  Level FlightAware Approximate
10:35AM 40.2111 -74.6385 95° East  Level FlightAware Approximate
10:36AM 40.2077 -74.5908 95° East  Level FlightAware Approximate
10:37AM 40.2043 -74.5431 95° East  Level FlightAware Approximate
10:38AM 40.2009 -74.4954 95° East  Level FlightAware Approximate
10:39AM 40.1931 -74.4488 105° East  Level FlightAware Approximate
10:40AM 40.1838 -74.4025 105° East  Level FlightAware Approximate
10:41AM 40.1833 -74.3547 90° East  Level FlightAware Approximate
10:42AM 40.1833 -74.3068 90° East  Level FlightAware Approximate
10:43AM 40.1833 -74.2589 90° East  Level FlightAware Approximate
10:44AM 40.1833 -74.2111 90° East  Level FlightAware Approximate
10:45AM 40.1833 -74.1632 90° East  Level FlightAware Approximate
10:46AM 40.1833 -74.1167 90° East  Level FlightAware Approximate
10:47AM 40.1867 -74.1246 90° East  Level Estimated
10:48AM 40.1833 -74.1167 90° East  Level FlightAware Approximate
10:49AM 40.1867 -74.1246 90° East  Level Estimated
10:50AM 40.1833 -74.1167 90° East  Level FlightAware Approximate
10:51AM 40.1867 -74.1246 90° East  Level Estimated
10:52AM 40.1833 -74.1167 90° East  Level FlightAware Approximate
10:53AM 40.1867 -74.1246 90° East  Level Estimated
10:54AM 40.1833 -74.1167 90° East  Level FlightAware Approximate
10:55AM 40.1867 -74.1246 90° East  Level Estimated
10:56AM 40.1833 -74.1167 90° East  Level FlightAware Approximate
10:57AM 40.1867 -74.1246 90° East  Level Estimated
10:58AM 40.1833 -74.1167 90° East  Level FlightAware Approximate
10:59AM 40.1867 -74.1246 90° East  Level Estimated